Strona główna
METAR-TAF:

METAR-TAF

Lotnisko :

Port lotniczy Linz

Linz, Austria

Szerokość geograficzna: 48-14N, Długość geograficzna: 014-11E, wysokość: 298 m

Aktualna obserwacja pogody

Raport powstał 20 minut temu, godzina 12:20 UTC
Wiatr 1 kt z kierunków zmiennych
Temperatura 9°C
Wilgotność 49%
Ciśnienie 1022 hPa
Widzialność 10 km lub więcej
Brak chmur poniżej 1500 m i brak chmur cumulonimbus

METAR: LOWL 181220Z VRB01KT CAVOK 09/M01 Q1022 NOSIG

czas: 13:40 (12:40 UTC)

Prognoza

Raport powstał 1 godzina i 25 minut temu, godzina 11:15 UTC
Prognoza ważna od 18 godzina 12 UTC do 19 godzina 12 UTC
Wiatr 2 kt z kierunków zmiennych
Widzialność 10 km lub więcej
Brak chmur poniżej 1500 m i brak chmur cumulonimbus
Przejściowo
od 19 godzina 03 UTC do 19 godzina 10 UTC
Widzialność: 4000 m
Rozproszone chmury na wysokości 200 ft
zamglenie

TAF: LOWL 181115Z 1812/1912 VRB02KT CAVOK TX10/1814Z TNM02/1906Z TEMPO 1903/1910 4000 BR SCT002

Obserwacja i prognoza pogody dla ponad 4000 lotnisk (raport METAR i TAF).

Dostępne stacje oznaczono żółtymi i czerwonymi punktami na mapie.

Najedź kursorem aby zobaczyć nazwę stacji.

Kliknij aby zobaczyć obserwacje i prognozy pogody.

Aby zmienić mapę: kliknij na zielony przycisk z czarnym krzyżykiem, aby powiększyć; na zielony przycisk z myślnikiem, aby pomniejszyć; na zielone strzałki, aby przejść do map sąsiednich.


METAR-TAF: